Saffet Bey — TCUZ — position and weather

sailwx.info

Track history (hours):
 
Tides and Currents Weather Stations Pressure Air Temp Water Temp Dewpoint Dewpoint Depression Visibility Wind Speed Wind Dir Waves Ship Positions

Saffet Bey

Last reported at 2016-May-05 01:19 UTC. Time now 2016-May-05 08:31 UTC.
Position N 45°13' E 013°17'.

Length 164 m; draft 6.9 m.

Type: Cargo ship. MMSI: 271000419.

Date/timePositionNaut miles runAvg speedWind from/ knotsBaromVisibWave heightAir tempDewpointWater temp
2016-May-05 01:19N 45°13' E 013°17'1113.1
2016-May-05 00:31N 45°03' E 013°22'  
2016-May-02 08:34N 37°14' E 024°47'1514.4
2016-May-02 07:33N 37°23' E 025°02'1414.6
2016-May-02 06:33N 37°32' E 025°16'1414.5
2016-May-02 05:33N 37°42' E 025°29'12 0.7
2016-May-01 11:25N 37°51' E 025°40'1113.0
2016-May-01 10:33N 37°43' E 025°30'1312.6
2016-May-01 09:33N 37°34' E 025°19'1212.4
2016-May-01 08:33N 37°26' E 025°07'1313.1
2016-May-01 07:33N 37°17' E 024°54'21211.0
2016-Apr-30 12:20N 37°54' E 020°31'1714.6
2016-Apr-30 11:11N 38°08' E 020°19'53314.6
2016-Apr-28 22:33N 45°12' E 013°05'  
2016-Apr-25 15:08N 36°33' E 023°29'812.9
2016-Apr-25 14:30N 36°38' E 023°38'6512.5
2016-Apr-25 09:20N 37°13' E 024°45'1113.6
2016-Apr-25 08:34N 37°20' E 024°56'1413.7
2016-Apr-25 07:33N 37°28' E 025°10'1413.9
2016-Apr-25 06:33N 37°37' E 025°23'1413.9
2016-Apr-25 05:32N 37°47' E 025°36'  
Track history (hours):
 
Tides and Currents Weather Stations Pressure Air Temp Water Temp Dewpoint Dewpoint Depression Visibility Wind Speed Wind Dir Waves Ship Positions

Saffet Bey

Last reported at 2016-May-05 01:19 UTC. Time now 2016-May-05 08:31 UTC.
Position N 45°13' E 013°17'.

Length 164 m; draft 6.9 m.

Type: Cargo ship. MMSI: 271000419.

Date/timePositionNaut miles runAvg speedWind from/ knotsBaromVisibWave heightAir tempDewpointWater temp
2016-May-05 01:19N 45°13' E 013°17'1113.1
2016-May-05 00:31N 45°03' E 013°22'  
2016-May-02 08:34N 37°14' E 024°47'1514.4
2016-May-02 07:33N 37°23' E 025°02'1414.6
2016-May-02 06:33N 37°32' E 025°16'1414.5
2016-May-02 05:33N 37°42' E 025°29'12 0.7
2016-May-01 11:25N 37°51' E 025°40'1113.0
2016-May-01 10:33N 37°43' E 025°30'1312.6
2016-May-01 09:33N 37°34' E 025°19'1212.4
2016-May-01 08:33N 37°26' E 025°07'1313.1
2016-May-01 07:33N 37°17' E 024°54'21211.0
2016-Apr-30 12:20N 37°54' E 020°31'1714.6
2016-Apr-30 11:11N 38°08' E 020°19'53314.6
2016-Apr-28 22:33N 45°12' E 013°05'  
2016-Apr-25 15:08N 36°33' E 023°29'812.9
2016-Apr-25 14:30N 36°38' E 023°38'6512.5
2016-Apr-25 09:20N 37°13' E 024°45'1113.6
2016-Apr-25 08:34N 37°20' E 024°56'1413.7
2016-Apr-25 07:33N 37°28' E 025°10'1413.9
2016-Apr-25 06:33N 37°37' E 025°23'1413.9
2016-Apr-25 05:32N 37°47' E 025°36'  

Dump ship's entire track history